Time;durP1;ratioP1;P1;durP2;ratioP2;P2;SDS_P1;SDS_P2;PMS_P1;PMS_P2;Temp;Humidity;BMP_temperature;BMP_pressure;BME280_temperature;BME280_humidity;BME280_pressure;Samples;Min_cycle;Max_cycle;Signal;HPM_P1;HPM_P2
2021/07/15 00:01:48;;;;;;;4.77;2.10;;;17.20;99.90;;;;;;4978539;28;20334;-71
2021/07/15 00:04:14;;;;;;;3.57;2.00;;;17.20;99.90;;;;;;4978659;28;20698;-69
2021/07/15 00:06:40;;;;;;;3.30;1.87;;;17.20;99.90;;;;;;4962535;28;20279;-70
2021/07/15 00:09:05;;;;;;;3.70;2.10;;;17.30;99.90;;;;;;4995699;28;20331;-70
2021/07/15 00:11:33;;;;;;;9.23;2.27;;;17.30;99.90;;;;;;4978240;28;20350;-70
2021/07/15 00:13:59;;;;;;;3.37;1.93;;;17.30;99.90;;;;;;4994653;28;20180;-70
2021/07/15 00:16:25;;;;;;;5.37;1.97;;;17.30;99.90;;;;;;4978455;28;20187;-70
2021/07/15 00:18:50;;;;;;;8.43;2.27;;;17.30;99.90;;;;;;4962126;28;20267;-70
2021/07/15 00:21:17;;;;;;;5.33;2.53;;;17.30;99.90;;;;;;4978373;28;20683;-71
2021/07/15 00:23:44;;;;;;;5.73;2.37;;;17.30;99.90;;;;;;4978369;28;20180;-70
2021/07/15 00:26:09;;;;;;;8.33;2.20;;;17.30;99.90;;;;;;4994426;28;20216;-70
2021/07/15 00:28:38;;;;;;;6.20;2.70;;;17.20;99.90;;;;;;4978126;28;20215;-70
2021/07/15 00:31:04;;;;;;;7.43;2.33;;;17.20;99.90;;;;;;4961875;28;20204;-71
2021/07/15 00:33:30;;;;;;;6.33;3.03;;;17.20;99.90;;;;;;4978046;28;20270;-71
2021/07/15 00:35:56;;;;;;;4.67;2.93;;;17.20;99.90;;;;;;4993845;28;20183;-71
2021/07/15 00:38:22;;;;;;;9.23;3.47;;;17.30;99.90;;;;;;4978028;28;20183;-70
2021/07/15 00:40:47;;;;;;;5.43;3.13;;;17.30;99.90;;;;;;4995160;28;20200;-70
2021/07/15 00:43:13;;;;;;;7.67;3.10;;;17.30;99.90;;;;;;4994064;28;20671;-70
2021/07/15 00:45:39;;;;;;;7.80;3.13;;;17.20;99.90;;;;;;4977882;28;20180;-70
2021/07/15 00:48:04;;;;;;;8.03;3.20;;;17.20;99.90;;;;;;4994031;28;20502;-70
2021/07/15 00:50:30;;;;;;;9.00;3.87;;;17.20;99.90;;;;;;4977598;28;20200;-70
2021/07/15 00:52:56;;;;;;;7.10;3.70;;;17.20;99.90;;;;;;4977633;28;20212;-70
2021/07/15 00:55:25;;;;;;;5.97;3.10;;;17.20;99.90;;;;;;4993867;28;20184;-70
2021/07/15 00:57:51;;;;;;;8.33;3.47;;;17.20;99.90;;;;;;4993703;28;20187;-70
2021/07/15 01:00:17;;;;;;;6.57;3.17;;;17.20;99.90;;;;;;4977381;28;20203;-70
2021/07/15 01:02:43;;;;;;;6.90;3.50;;;17.20;99.90;;;;;;4993794;28;20181;-70
2021/07/15 01:05:10;;;;;;;11.23;4.20;;;17.20;99.90;;;;;;4993770;28;20669;-70
2021/07/15 01:07:36;;;;;;;6.80;3.50;;;17.20;99.90;;;;;;4993797;28;20239;-70
2021/07/15 01:10:04;;;;;;;11.27;3.77;;;17.20;99.90;;;;;;4993445;28;20293;-69
2021/07/15 01:12:50;;;;;;;5.77;3.20;;;17.20;99.90;;;;;;4993411;28;20223;-70
2021/07/15 01:15:17;;;;;;;5.10;3.53;;;17.20;99.90;;;;;;4994948;28;20180;-70
2021/07/15 01:18:16;;;;;;;13.07;4.07;;;17.20;99.90;;;;;;4977604;28;20199;-70
2021/07/15 01:21:17;;;;;;;9.27;3.80;;;17.20;99.90;;;;;;4965754;28;20216;-70
2021/07/15 01:24:09;;;;;;;10.40;4.37;;;17.20;99.90;;;;;;4993888;28;20188;-70
2021/07/15 01:27:12;;;;;;;9.37;4.20;;;17.20;99.90;;;;;;4979756;28;20555;-70
2021/07/15 01:30:12;;;;;;;8.20;3.93;;;17.20;99.90;;;;;;4993070;28;20179;-70
2021/07/15 01:33:16;;;;;;;8.97;4.03;;;17.20;99.90;;;;;;4993162;28;20210;-70
2021/07/15 01:35:54;;;;;;;5.40;3.53;;;17.30;99.90;;;;;;4994264;28;20215;-70
2021/07/15 01:38:23;;;;;;;10.10;3.83;;;17.20;99.90;;;;;;4994441;28;20663;-70
2021/07/15 01:40:57;;;;;;;6.97;3.90;;;17.20;99.90;;;;;;4977123;28;20266;-70
2021/07/15 01:43:42;;;;;;;8.97;4.07;;;17.20;99.90;;;;;;4977129;28;20183;-70
2021/07/15 01:46:08;;;;;;;11.33;4.80;;;17.20;99.90;;;;;;4975946;28;20191;-70
2021/07/15 01:48:34;;;;;;;12.33;4.30;;;17.20;99.90;;;;;;4976660;28;20267;-71
2021/07/15 01:50:59;;;;;;;7.63;4.40;;;17.20;99.90;;;;;;4960383;28;20207;-70
2021/07/15 01:53:25;;;;;;;7.03;4.23;;;17.20;99.90;;;;;;4992801;28;20722;-70
2021/07/15 01:55:51;;;;;;;8.63;4.40;;;17.20;99.90;;;;;;4976644;28;20180;-70
2021/07/15 01:58:17;;;;;;;7.53;4.27;;;17.20;99.90;;;;;;4992688;28;20267;-70
2021/07/15 02:00:42;;;;;;;7.27;3.93;;;17.20;99.90;;;;;;4992480;28;20313;-70
2021/07/15 02:03:08;;;;;;;8.83;3.97;;;17.20;99.90;;;;;;4976530;28;20227;-70
2021/07/15 02:05:33;;;;;;;8.47;4.03;;;17.20;99.90;;;;;;4976572;28;20176;-70
2021/07/15 02:08:00;;;;;;;7.77;4.00;;;17.20;99.90;;;;;;4976360;28;20187;-70
2021/07/15 02:10:26;;;;;;;11.97;4.40;;;17.20;99.90;;;;;;4992132;28;20228;-70
2021/07/15 02:12:52;;;;;;;11.93;4.80;;;17.20;99.90;;;;;;4991655;28;20208;-71
2021/07/15 02:15:18;;;;;;;7.70;4.77;;;17.10;99.90;;;;;;4960253;28;20271;-70
2021/07/15 02:17:43;;;;;;;8.57;4.77;;;17.20;99.90;;;;;;4992380;28;20787;-71
2021/07/15 02:20:11;;;;;;;9.50;4.60;;;17.10;99.90;;;;;;4975879;28;20208;-69
2021/07/15 02:22:37;;;;;;;9.73;4.23;;;17.10;99.90;;;;;;4976612;28;20235;-70
2021/07/15 02:25:04;;;;;;;8.40;4.70;;;17.10;99.90;;;;;;4976070;28;20203;-70
2021/07/15 02:27:30;;;;;;;8.27;4.20;;;17.10;99.90;;;;;;4976051;28;20184;-70
2021/07/15 02:29:55;;;;;;;9.97;4.40;;;17.10;99.90;;;;;;4991892;28;20559;-70
2021/07/15 02:32:21;;;;;;;5.50;4.50;;;17.10;99.90;;;;;;4992069;28;20682;-70
2021/07/15 02:34:58;;;;;;;9.57;4.57;;;17.00;99.90;;;;;;4992205;28;20301;-69
2021/07/15 02:37:26;;;;;;;8.17;4.97;;;17.00;99.90;;;;;;4992112;28;20546;-70
2021/07/15 02:39:52;;;;;;;8.77;4.33;;;17.00;99.90;;;;;;4975881;28;20640;-70
2021/07/15 02:42:17;;;;;;;11.20;5.13;;;17.00;99.90;;;;;;4976174;28;20199;-70
2021/07/15 02:44:43;;;;;;;10.33;4.80;;;17.00;99.90;;;;;;4975940;28;20184;-70
2021/07/15 02:47:09;;;;;;;6.13;4.40;;;17.00;99.90;;;;;;4975763;28;20188;-70
2021/07/15 02:49:38;;;;;;;6.27;4.83;;;17.00;99.90;;;;;;4992994;28;20192;-70
2021/07/15 02:52:03;;;;;;;11.30;4.93;;;17.00;99.90;;;;;;4976177;28;20208;-70
2021/07/15 02:54:29;;;;;;;10.53;4.67;;;17.00;99.90;;;;;;4991830;28;20657;-70
2021/07/15 02:57:32;;;;;;;10.23;4.63;;;17.00;99.90;;;;;;4992819;28;20191;-70
2021/07/15 03:00:08;;;;;;;11.40;4.70;;;17.00;99.90;;;;;;4992871;28;20623;-70
2021/07/15 03:02:46;;;;;;;9.37;4.40;;;17.00;99.90;;;;;;4993090;28;20267;-70
2021/07/15 03:05:16;;;;;;;8.87;4.83;;;17.10;99.90;;;;;;4992776;28;20188;-70
2021/07/15 03:07:56;;;;;;;11.13;4.43;;;17.00;99.90;;;;;;4975733;28;20189;-69
2021/07/15 03:10:21;;;;;;;11.23;4.57;;;17.00;99.90;;;;;;4975935;28;20196;-70
2021/07/15 03:12:47;;;;;;;11.20;4.70;;;17.00;99.90;;;;;;4975415;28;20227;-70
2021/07/15 03:15:13;;;;;;;10.20;4.20;;;17.00;99.90;;;;;;4975414;28;20176;-70
2021/07/15 03:17:39;;;;;;;8.13;4.00;;;17.00;99.90;;;;;;4975686;28;20184;-70
2021/07/15 03:20:23;;;;;;;9.20;4.37;;;17.00;99.90;;;;;;4975309;28;20232;-70
2021/07/15 03:22:52;;;;;;;13.13;4.60;;;17.00;99.90;;;;;;4977465;28;20184;-69
2021/07/15 03:25:17;;;;;;;9.93;4.63;;;17.00;99.90;;;;;;4992866;28;20309;-70
2021/07/15 03:27:45;;;;;;;9.57;4.17;;;17.00;99.90;;;;;;4975607;28;20192;-70
2021/07/15 03:30:11;;;;;;;10.57;4.33;;;17.10;99.90;;;;;;4975273;28;20568;-70
2021/07/15 03:32:37;;;;;;;11.67;4.97;;;17.10;99.90;;;;;;4975418;28;20688;-70
2021/07/15 03:35:03;;;;;;;12.97;4.53;;;17.10;99.90;;;;;;4975335;28;20535;-69
2021/07/15 03:37:29;;;;;;;9.73;4.50;;;17.00;99.90;;;;;;4991376;28;20176;-70
2021/07/15 03:39:54;;;;;;;7.23;4.00;;;16.90;99.90;;;;;;4991193;28;20173;-70
2021/07/15 03:42:20;;;;;;;12.87;4.97;;;17.00;99.90;;;;;;4975329;28;20558;-70
2021/07/15 03:44:46;;;;;;;11.33;4.60;;;17.00;99.90;;;;;;4959325;28;20608;-70
2021/07/15 03:47:12;;;;;;;9.80;4.27;;;16.90;99.90;;;;;;4975334;28;20172;-70
2021/07/15 03:49:38;;;;;;;7.77;4.40;;;16.90;99.90;;;;;;4974998;28;20177;-70
2021/07/15 03:52:03;;;;;;;6.70;4.30;;;17.00;99.90;;;;;;4975123;28;20573;-70
2021/07/15 03:54:29;;;;;;;8.17;4.50;;;16.90;99.90;;;;;;4975024;28;20184;-70
2021/07/15 03:56:54;;;;;;;8.63;4.30;;;17.00;99.90;;;;;;4958871;28;20451;-70
2021/07/15 03:59:20;;;;;;;10.97;4.27;;;16.90;99.90;;;;;;4958537;28;20176;-70
2021/07/15 04:01:54;;;;;;;10.83;4.30;;;16.90;99.90;;;;;;4974985;28;20184;-70
2021/07/15 04:04:20;;;;;;;9.50;4.50;;;16.90;99.90;;;;;;4976015;28;20689;-70
2021/07/15 04:06:46;;;;;;;8.23;4.37;;;16.90;99.90;;;;;;4975049;28;20169;-70
2021/07/15 04:09:11;;;;;;;6.00;4.20;;;16.90;99.90;;;;;;4959316;28;20335;-70
2021/07/15 04:11:37;;;;;;;6.53;4.47;;;16.90;99.90;;;;;;4994649;28;20347;-70
2021/07/15 04:14:06;;;;;;;10.77;4.43;;;17.00;99.90;;;;;;4978520;28;20216;-70
2021/07/15 04:16:51;;;;;;;9.83;4.40;;;17.00;99.90;;;;;;4978865;28;20187;-69
2021/07/15 04:19:16;;;;;;;12.43;4.93;;;17.00;99.90;;;;;;4994431;28;20172;-70
2021/07/15 04:21:42;;;;;;;6.90;4.20;;;17.00;99.90;;;;;;4978574;28;20211;-69
2021/07/15 04:24:07;;;;;;;13.10;4.87;;;17.00;99.90;;;;;;4994676;28;20181;-70
2021/07/15 04:26:33;;;;;;;10.07;4.33;;;17.00;99.90;;;;;;4978580;28;20180;-70
2021/07/15 04:28:58;;;;;;;10.00;4.20;;;17.00;99.90;;;;;;4978431;28;20541;-70
2021/07/15 04:31:51;;;;;;;9.20;4.33;;;17.10;99.90;;;;;;4978389;28;20204;-69
2021/07/15 04:34:16;;;;;;;9.43;4.53;;;17.10;99.90;;;;;;4978019;28;20188;-70
2021/07/15 04:36:42;;;;;;;14.70;5.07;;;17.00;99.90;;;;;;4978060;28;20183;-70
2021/07/15 04:39:07;;;;;;;7.33;4.50;;;16.90;99.90;;;;;;4978080;28;20211;-70
2021/07/15 04:41:33;;;;;;;6.43;4.80;;;16.90;99.90;;;;;;4994325;28;20258;-70
2021/07/15 04:43:59;;;;;;;8.67;4.73;;;16.90;99.90;;;;;;4994547;28;20176;-70
2021/07/15 04:46:25;;;;;;;12.90;5.00;;;17.00;99.90;;;;;;4978276;28;20172;-70
2021/07/15 04:48:50;;;;;;;11.63;5.00;;;17.00;99.90;;;;;;4994029;28;20548;-69
2021/07/15 04:51:16;;;;;;;8.00;4.93;;;17.00;99.90;;;;;;4977837;28;20206;-70
2021/07/15 04:53:43;;;;;;;8.60;4.90;;;17.00;99.90;;;;;;4977801;28;20279;-70
2021/07/15 04:56:09;;;;;;;10.37;4.63;;;17.00;99.90;;;;;;4977945;28;20194;-70
2021/07/15 04:58:35;;;;;;;9.00;4.50;;;17.00;99.90;;;;;;4978111;28;20208;-69
2021/07/15 05:01:00;;;;;;;14.03;4.57;;;17.00;99.90;;;;;;4977968;28;20223;-70
2021/07/15 05:03:30;;;;;;;6.97;4.93;;;17.00;99.90;;;;;;4993990;28;20583;-70
2021/07/15 05:05:57;;;;;;;5.73;4.80;;;17.00;99.90;;;;;;4995078;28;20179;-70
2021/07/15 05:08:23;;;;;;;8.37;4.27;;;17.10;99.90;;;;;;4977810;28;20237;-70
2021/07/15 05:10:48;;;;;;;5.63;5.00;;;17.20;99.90;;;;;;5013820;22;20229;-83
2021/07/15 05:13:14;;;;;;;8.33;4.87;;;17.20;99.90;;;;;;4961582;28;20211;-83
2021/07/15 05:15:39;;;;;;;7.30;4.80;;;17.20;99.90;;;;;;4980002;28;20193;-83
2021/07/15 05:18:05;;;;;;;8.93;4.80;;;17.30;99.90;;;;;;4946139;28;20181;-83
2021/07/15 05:20:31;;;;;;;7.77;5.00;;;17.30;99.90;;;;;;4944587;28;20177;-83
2021/07/15 05:22:56;;;;;;;10.80;4.87;;;17.40;99.90;;;;;;4945291;28;20185;-83
2021/07/15 05:25:22;;;;;;;9.63;4.40;;;17.40;99.90;;;;;;4961286;28;20196;-83
2021/07/15 05:27:48;;;;;;;6.23;4.30;;;17.50;99.90;;;;;;4960928;28;20650;-83
2021/07/15 05:30:14;;;;;;;9.63;4.50;;;17.60;99.90;;;;;;4945347;28;20181;-83
2021/07/15 05:32:40;;;;;;;9.30;4.40;;;17.60;99.90;;;;;;4945267;28;20207;-83
2021/07/15 05:35:06;;;;;;;9.07;4.13;;;17.60;99.90;;;;;;4945156;28;20173;-83
2021/07/15 05:37:31;;;;;;;9.63;4.17;;;17.60;99.90;;;;;;4945063;28;20569;-83
2021/07/15 05:39:57;;;;;;;6.83;4.40;;;17.50;99.90;;;;;;4945278;28;20173;-83
2021/07/15 05:42:22;;;;;;;6.37;4.10;;;17.60;99.90;;;;;;4945613;28;20276;-83
2021/07/15 05:44:48;;;;;;;7.93;4.57;;;17.50;99.90;;;;;;4961996;28;20177;-83
2021/07/15 05:47:13;;;;;;;8.03;4.47;;;17.60;99.90;;;;;;4944907;28;20569;-83
2021/07/15 05:49:39;;;;;;;12.23;4.57;;;17.60;99.90;;;;;;4945191;28;20188;-83
2021/07/15 05:52:05;;;;;;;9.63;5.00;;;17.60;99.90;;;;;;4944848;28;20197;-83
2021/07/15 05:54:31;;;;;;;11.77;5.00;;;17.60;99.90;;;;;;4961155;28;20173;-83
2021/07/15 05:56:56;;;;;;;9.37;4.73;;;17.60;99.90;;;;;;4945047;28;20203;-83
2021/07/15 05:59:22;;;;;;;6.63;4.40;;;17.60;99.90;;;;;;4945056;28;20200;-83
2021/07/15 06:01:48;;;;;;;8.57;4.67;;;17.60;99.90;;;;;;4945308;28;20269;-83
2021/07/15 06:04:13;;;;;;;6.23;4.53;;;17.60;99.90;;;;;;4944909;28;20169;-83
2021/07/15 06:06:39;;;;;;;10.53;4.77;;;17.60;99.90;;;;;;4944751;28;20646;-83
2021/07/15 06:09:04;;;;;;;9.53;4.93;;;17.70;99.90;;;;;;4944348;28;20181;-83
2021/07/15 06:11:30;;;;;;;7.20;4.57;;;17.70;99.90;;;;;;4944885;28;20235;-83
2021/07/15 06:13:55;;;;;;;5.83;4.70;;;17.70;99.90;;;;;;4944233;28;20201;-83
2021/07/15 06:16:21;;;;;;;8.00;4.63;;;17.70;99.90;;;;;;4944168;28;20204;-83
2021/07/15 06:18:47;;;;;;;11.10;5.00;;;17.80;99.90;;;;;;4959906;28;20177;-83
2021/07/15 06:21:12;;;;;;;7.73;4.93;;;17.80;99.90;;;;;;4944669;28;20192;-83
2021/07/15 06:23:38;;;;;;;5.83;4.53;;;17.80;99.90;;;;;;4960042;28;20805;-83
2021/07/15 06:26:05;;;;;;;7.10;4.30;;;17.80;99.90;;;;;;4944389;28;20238;-83
2021/07/15 06:28:31;;;;;;;8.57;4.83;;;17.90;99.90;;;;;;4943871;28;20185;-83
2021/07/15 06:30:56;;;;;;;7.63;4.60;;;17.90;99.90;;;;;;4944095;28;20535;-83
2021/07/15 06:33:22;;;;;;;8.87;5.23;;;17.90;99.90;;;;;;4943637;28;20574;-83
2021/07/15 06:35:50;;;;;;;5.30;4.80;;;17.90;99.90;;;;;;4943667;28;20197;-83
2021/07/15 06:38:16;;;;;;;6.33;5.00;;;17.90;99.90;;;;;;4944157;28;20181;-83
2021/07/15 06:40:46;;;;;;;11.70;5.30;;;18.00;99.90;;;;;;4944045;28;20173;-83
2021/07/15 06:43:11;;;;;;;5.47;4.70;;;18.00;99.90;;;;;;4960410;28;20177;-83
2021/07/15 06:45:37;;;;;;;9.37;4.60;;;18.00;99.90;;;;;;4944279;28;20204;-83
2021/07/15 06:48:03;;;;;;;9.70;4.80;;;18.10;99.90;;;;;;4959815;28;20181;-83
2021/07/15 06:50:28;;;;;;;8.17;4.70;;;18.20;99.90;;;;;;4943632;28;20682;-83
2021/07/15 06:52:54;;;;;;;6.33;5.23;;;18.20;99.90;;;;;;4943736;28;20205;-83
2021/07/15 06:55:19;;;;;;;6.53;5.20;;;18.20;99.90;;;;;;4943400;28;20173;-83
2021/07/15 06:57:47;;;;;;;9.43;5.93;;;18.20;99.90;;;;;;4943251;28;20215;-83
2021/07/15 07:00:14;;;;;;;6.03;5.43;;;18.20;99.90;;;;;;4944324;28;20180;-83
2021/07/15 07:02:40;;;;;;;8.63;5.60;;;18.20;99.90;;;;;;4943715;28;20177;-83
2021/07/15 07:05:06;;;;;;;7.57;5.43;;;18.20;99.90;;;;;;4943174;28;20672;-83
2021/07/15 07:07:32;;;;;;;7.47;4.93;;;18.20;99.90;;;;;;4943343;28;20205;-83
2021/07/15 07:09:57;;;;;;;6.93;4.57;;;18.30;99.90;;;;;;4943250;28;20188;-83
2021/07/15 07:12:23;;;;;;;8.10;5.00;;;18.30;99.90;;;;;;4943065;28;20589;-83
2021/07/15 07:14:48;;;;;;;8.83;4.93;;;18.40;99.90;;;;;;4942917;28;20204;-84
2021/07/15 07:17:14;;;;;;;7.53;4.90;;;18.40;99.90;;;;;;4942917;28;20200;-83
2021/07/15 07:19:39;;;;;;;5.70;5.00;;;18.50;99.90;;;;;;4959568;28;20284;-83
2021/07/15 07:22:05;;;;;;;6.40;4.60;;;18.50;99.90;;;;;;4943671;28;20193;-83
2021/07/15 07:24:30;;;;;;;9.77;4.83;;;18.50;99.90;;;;;;4943223;28;20184;-83
2021/07/15 07:26:56;;;;;;;7.50;4.90;;;18.70;99.90;;;;;;4943128;28;20200;-83
2021/07/15 07:29:22;;;;;;;6.40;5.10;;;18.70;99.90;;;;;;4942625;28;20177;-83
2021/07/15 07:31:47;;;;;;;8.05;5.40;;;18.80;99.90;;;;;;4942729;28;20173;-83
2021/07/15 07:34:13;;;;;;;6.30;5.40;;;18.80;99.90;;;;;;4943050;28;20187;-83
2021/07/15 07:36:38;;;;;;;8.90;5.63;;;18.90;99.90;;;;;;4943537;28;20682;-83
2021/07/15 07:39:04;;;;;;;8.87;5.60;;;19.10;99.90;;;;;;4943045;28;20643;-83
2021/07/15 07:41:31;;;;;;;8.57;5.37;;;19.20;99.90;;;;;;4943998;28;20282;-83
2021/07/15 07:43:57;;;;;;;6.87;5.23;;;19.30;99.90;;;;;;4944066;28;20209;-83
2021/07/15 07:46:23;;;;;;;8.10;5.97;;;19.40;99.90;;;;;;4963653;28;20277;-83
2021/07/15 07:48:48;;;;;;;8.67;5.00;;;19.40;99.90;;;;;;4946986;28;20196;-83
2021/07/15 07:51:14;;;;;;;7.80;5.30;;;19.50;99.90;;;;;;4946481;28;20496;-83
2021/07/15 07:53:40;;;;;;;6.73;5.63;;;19.50;99.90;;;;;;4946955;28;20648;-83
2021/07/15 07:56:06;;;;;;;7.37;6.00;;;19.50;99.90;;;;;;4946831;28;20208;-83
2021/07/15 07:58:31;;;;;;;7.07;5.40;;;19.40;99.90;;;;;;4946915;28;20216;-83
2021/07/15 08:00:57;;;;;;;7.23;5.47;;;19.40;99.90;;;;;;4946359;28;20205;-83
2021/07/15 08:03:22;;;;;;;7.63;5.67;;;19.40;99.90;;;;;;4945942;28;20192;-83
2021/07/15 08:05:48;;;;;;;6.17;5.43;;;19.50;99.90;;;;;;4946141;28;20204;-83
2021/07/15 08:08:16;;;;;;;8.83;6.30;;;19.60;99.90;;;;;;4962783;28;20318;-83
2021/07/15 08:10:42;;;;;;;6.10;5.50;;;19.70;99.90;;;;;;4946579;28;20199;-83
2021/07/15 08:13:08;;;;;;;8.27;5.80;;;19.90;99.90;;;;;;4945794;28;20205;-83
2021/07/15 08:15:33;;;;;;;5.87;5.20;;;20.30;99.90;;;;;;4945818;28;20613;-83
2021/07/15 08:17:59;;;;;;;7.10;6.40;;;20.90;99.90;;;;;;4945562;28;20185;-83
2021/07/15 08:20:24;;;;;;;5.57;5.00;;;21.30;99.90;;;;;;4945875;28;20674;-83
2021/07/15 08:22:50;;;;;;;7.17;5.40;;;21.60;99.90;;;;;;4961729;28;20553;-83
2021/07/15 08:25:19;;;;;;;10.00;5.40;;;21.80;99.90;;;;;;4977342;28;20204;-83
2021/07/15 08:27:45;;;;;;;4.80;4.10;;;21.80;99.90;;;;;;4945691;28;20181;-83
2021/07/15 08:30:11;;;;;;;5.23;4.37;;;22.00;99.90;;;;;;4945272;28;20181;-83
2021/07/15 08:32:37;;;;;;;6.50;4.40;;;22.00;99.90;;;;;;4945089;28;20205;-82
2021/07/15 08:35:03;;;;;;;5.80;5.20;;;21.90;99.90;;;;;;4945000;28;20260;-82
2021/07/15 08:37:29;;;;;;;4.33;3.67;;;22.00;99.90;;;;;;4944961;28;20322;-83
2021/07/15 08:39:54;;;;;;;4.73;3.33;;;22.20;99.90;;;;;;4944712;28;20205;-83
2021/07/15 08:42:20;;;;;;;4.87;2.80;;;22.30;99.90;;;;;;4944700;28;20181;-83
2021/07/15 08:44:46;;;;;;;4.63;3.97;;;22.60;99.90;;;;;;4944624;28;20192;-83
2021/07/15 08:47:14;;;;;;;4.97;3.70;;;22.70;99.90;;;;;;4944266;28;20205;-83
2021/07/15 08:49:39;;;;;;;5.07;3.63;;;22.90;99.90;;;;;;4959948;28;20593;-83
2021/07/15 08:52:05;;;;;;;6.37;4.00;;;23.00;99.90;;;;;;4943882;28;20208;-83
2021/07/15 08:54:49;;;;;;;5.90;3.60;;;23.00;99.90;;;;;;4944061;28;20205;-83
2021/07/15 08:57:15;;;;;;;4.20;3.80;;;23.00;99.90;;;;;;4962591;28;20670;-83
2021/07/15 08:59:41;;;;;;;5.00;3.43;;;22.90;99.90;;;;;;4943828;28;20173;-82
2021/07/15 09:02:07;;;;;;;3.60;3.00;;;22.90;99.90;;;;;;4943616;28;20212;-83
2021/07/15 09:04:32;;;;;;;2.70;2.50;;;23.00;99.90;;;;;;4959779;28;20264;-83
2021/07/15 09:06:58;;;;;;;2.97;2.57;;;22.90;99.90;;;;;;4943684;28;20200;-83
2021/07/15 09:09:23;;;;;;;3.07;2.80;;;22.80;99.90;;;;;;4946478;28;20550;-84
2021/07/15 09:11:49;;;;;;;3.60;3.17;;;22.80;99.90;;;;;;4944111;28;20204;-83
2021/07/15 09:14:17;;;;;;;5.03;3.23;;;22.70;99.90;;;;;;4944599;28;20184;-83
2021/07/15 09:16:53;;;;;;;4.20;3.30;;;22.60;99.90;;;;;;4944345;28;20197;-83
2021/07/15 09:19:20;;;;;;;3.90;2.37;;;22.40;99.90;;;;;;4944012;28;20268;-83
2021/07/15 09:21:46;;;;;;;2.50;2.30;;;22.50;99.90;;;;;;4959952;28;20613;-83
2021/07/15 09:24:30;;;;;;;3.27;2.50;;;22.60;99.90;;;;;;4943580;28;20205;-83
2021/07/15 09:26:56;;;;;;;3.30;2.30;;;22.60;99.90;;;;;;4975409;28;20205;-83
2021/07/15 09:29:22;;;;;;;2.40;2.20;;;22.50;99.90;;;;;;4943408;28;20658;-83
2021/07/15 09:31:51;;;;;;;2.88;2.28;;;22.30;99.90;;;;;;4943130;28;20267;-82
2021/07/15 09:34:17;;;;;;;2.78;2.10;;;22.20;99.90;;;;;;4959430;28;20212;-83
2021/07/15 09:36:42;;;;;;;2.20;1.95;;;22.20;99.90;;;;;;4959166;28;20193;-83
2021/07/15 09:39:22;;;;;;;3.42;1.70;;;22.20;99.90;;;;;;4943188;28;20177;-83
2021/07/15 09:42:06;;;;;;;2.20;1.70;;;22.10;99.90;;;;;;4959634;28;20192;-83
2021/07/15 09:44:38;;;;;;;5.18;2.30;;;22.10;99.90;;;;;;4975221;28;20185;-83
2021/07/15 09:47:07;;;;;;;4.50;2.00;;;22.30;99.90;;;;;;4943620;28;20197;-83
2021/07/15 09:49:34;;;;;;;4.73;1.80;;;22.40;99.90;;;;;;4959612;28;20184;-83
2021/07/15 09:51:59;;;;;;;2.70;1.60;;;22.40;99.90;;;;;;4943138;28;20211;-83
2021/07/15 09:54:26;;;;;;;2.40;1.87;;;22.30;99.90;;;;;;4943285;28;20663;-83
2021/07/15 09:56:51;;;;;;;2.90;1.97;;;22.30;99.90;;;;;;4943411;28;20193;-83
2021/07/15 09:59:17;;;;;;;3.07;1.90;;;22.30;99.90;;;;;;4943832;28;20177;-83
2021/07/15 10:01:50;;;;;;;3.80;2.70;;;22.30;99.90;;;;;;4945089;28;20173;-83
2021/07/15 10:04:26;;;;;;;3.70;2.50;;;22.30;99.90;;;;;;4945070;28;20515;-83
2021/07/15 10:06:54;;;;;;;3.47;2.70;;;22.10;99.90;;;;;;4959998;28;20207;-83
2021/07/15 10:09:30;;;;;;;3.50;1.80;;;22.10;99.90;;;;;;4945313;28;20215;-83
2021/07/15 10:12:00;;;;;;;3.50;2.00;;;22.00;99.90;;;;;;4944491;28;20199;-83
2021/07/15 10:14:38;;;;;;;2.40;1.70;;;22.10;99.90;;;;;;4945532;28;20256;-83
2021/07/15 10:17:04;;;;;;;1.63;1.53;;;22.20;99.90;;;;;;4976170;28;20295;-83
2021/07/15 10:19:30;;;;;;;5.10;2.07;;;22.20;99.90;;;;;;4944404;28;20268;-83
2021/07/15 10:22:04;;;;;;;3.20;1.50;;;22.20;99.90;;;;;;4960259;28;20193;-83
2021/07/15 10:24:30;;;;;;;4.03;2.13;;;22.20;99.90;;;;;;4944675;28;20211;-83
2021/07/15 10:27:00;;;;;;;2.10;1.70;;;22.10;99.90;;;;;;4943955;28;20197;-83
2021/07/15 10:29:26;;;;;;;2.20;1.50;;;22.10;99.90;;;;;;4960200;28;20702;-82
2021/07/15 10:31:52;;;;;;;4.20;1.60;;;22.10;99.90;;;;;;4943944;28;20264;-83
2021/07/15 10:34:18;;;;;;;4.90;1.67;;;22.10;99.90;;;;;;4943770;28;20173;-83
2021/07/15 10:36:43;;;;;;;3.00;1.80;;;22.00;99.90;;;;;;4960118;28;20737;-83
2021/07/15 10:39:17;;;;;;;1.73;1.60;;;22.00;99.90;;;;;;4960538;28;20173;-83
2021/07/15 10:41:44;;;;;;;2.30;1.70;;;22.00;99.90;;;;;;4945641;28;20170;-83
2021/07/15 10:44:09;;;;;;;4.03;1.77;;;21.90;99.90;;;;;;4944958;28;20181;-83
2021/07/15 10:46:36;;;;;;;2.53;1.70;;;21.90;99.90;;;;;;4944331;28;20207;-83
2021/07/15 10:49:01;;;;;;;2.50;1.90;;;22.10;99.90;;;;;;4944265;28;20187;-83
2021/07/15 10:51:27;;;;;;;1.90;1.70;;;22.30;99.90;;;;;;4944217;28;20176;-83
2021/07/15 10:53:53;;;;;;;1.70;1.50;;;22.60;99.90;;;;;;4944348;28;20197;-83
2021/07/15 10:56:19;;;;;;;4.03;1.60;;;22.80;99.90;;;;;;4944198;28;20204;-84
2021/07/15 10:58:49;;;;;;;2.90;1.70;;;22.90;99.90;;;;;;4943887;28;20712;-83
2021/07/15 11:01:35;;;;;;;2.27;1.73;;;22.90;99.90;;;;;;4944130;28;20200;-83
2021/07/15 11:04:14;;;;;;;2.60;1.90;;;23.00;99.90;;;;;;4975645;28;20185;-83
2021/07/15 11:06:44;;;;;;;5.23;2.00;;;23.00;99.90;;;;;;4959166;28;20284;-83
2021/07/15 11:09:30;;;;;;;2.90;1.80;;;22.90;99.90;;;;;;4958514;28;20559;-83
2021/07/15 11:11:57;;;;;;;2.20;1.53;;;22.80;99.90;;;;;;4982103;23;20282;-73
2021/07/15 11:14:46;;;;;;;1.40;1.30;;;22.70;99.90;;;;;;4988618;28;20308;-73
2021/07/15 11:17:21;;;;;;;2.83;1.70;;;22.60;99.90;;;;;;4988466;28;20181;-73
2021/07/15 11:20:08;;;;;;;2.40;1.80;;;22.50;99.90;;;;;;4973099;28;20183;-73
2021/07/15 11:22:47;;;;;;;2.33;1.70;;;22.60;99.90;;;;;;4968872;28;20185;-73
2021/07/15 11:25:13;;;;;;;1.63;1.50;;;22.70;99.90;;;;;;4969194;28;20184;-73
2021/07/15 11:28:13;;;;;;;3.43;1.93;;;22.70;99.90;;;;;;4996165;22;20232;-73
2021/07/15 11:30:43;;;;;;;3.53;1.90;;;22.80;99.90;;;;;;4991226;28;20196;-73
2021/07/15 11:33:23;;;;;;;2.88;1.70;;;22.70;99.90;;;;;;4991485;28;20279;-73
2021/07/15 11:36:09;;;;;;;3.10;1.70;;;22.80;99.90;;;;;;4992740;28;20596;-73
2021/07/15 11:38:44;;;;;;;4.57;1.60;;;22.80;99.90;;;;;;4975349;28;20720;-73
2021/07/15 11:41:12;;;;;;;2.50;1.60;;;22.60;99.90;;;;;;4991510;28;20187;-72
2021/07/15 11:43:47;;;;;;;2.50;1.50;;;22.40;99.90;;;;;;4991340;28;20655;-72
2021/07/15 11:46:13;;;;;;;2.13;1.70;;;22.50;99.90;;;;;;4992762;28;20218;-73
2021/07/15 11:49:00;;;;;;;2.63;1.90;;;22.50;99.90;;;;;;4992310;28;20262;-72
2021/07/15 11:51:41;;;;;;;2.40;2.00;;;22.50;99.90;;;;;;4991357;28;20196;-73
2021/07/15 11:54:26;;;;;;;2.27;1.53;;;22.60;99.90;;;;;;4991177;28;20254;-73
2021/07/15 11:57:10;;;;;;;3.83;2.35;;;22.70;99.90;;;;;;4992482;28;20647;-73
2021/07/15 11:59:39;;;;;;;5.32;2.35;;;22.80;99.90;;;;;;4992330;28;20173;-75
2021/07/15 12:02:19;;;;;;;2.67;2.00;;;22.70;99.90;;;;;;4992244;28;20738;-73
2021/07/15 12:05:13;;;;;;;4.63;1.90;;;22.70;99.90;;;;;;4974965;28;20187;-73
2021/07/15 12:07:48;;;;;;;2.63;1.80;;;22.50;99.90;;;;;;4991455;28;20169;-73
2021/07/15 12:10:20;;;;;;;3.30;2.33;;;22.50;99.90;;;;;;4990974;28;20678;-73
2021/07/15 12:12:46;;;;;;;2.57;2.23;;;22.50;99.90;;;;;;4991144;28;20196;-73
2021/07/15 12:15:19;;;;;;;5.87;2.23;;;22.50;99.90;;;;;;4975319;28;20183;-73
2021/07/15 12:17:46;;;;;;;5.97;2.53;;;22.50;99.90;;;;;;4991363;28;20530;-73
2021/07/15 12:20:12;;;;;;;4.43;1.83;;;22.50;99.90;;;;;;4991952;28;20653;-73
2021/07/15 12:22:49;;;;;;;3.22;2.05;;;22.50;99.90;;;;;;4991304;28;20262;-73
2021/07/15 12:25:34;;;;;;;4.03;1.75;;;22.60;99.90;;;;;;4992425;28;20183;-73
2021/07/15 12:28:02;;;;;;;4.15;1.92;;;22.70;99.90;;;;;;4991166;28;20180;-73
2021/07/15 12:30:43;;;;;;;3.10;1.80;;;22.90;99.90;;;;;;4991847;28;20187;-73
2021/07/15 12:33:09;;;;;;;2.40;2.00;;;23.10;99.90;;;;;;4995708;28;20748;-73
2021/07/15 12:35:35;;;;;;;2.67;1.77;;;23.20;99.90;;;;;;4994592;28;20259;-73
2021/07/15 12:38:34;;;;;;;3.73;2.30;;;23.10;99.90;;;;;;4994460;28;20180;-73
2021/07/15 12:41:26;;;;;;;3.27;1.70;;;23.20;99.90;;;;;;4995508;28;20574;-73
2021/07/15 12:44:04;;;;;;;2.83;1.70;;;23.30;99.90;;;;;;4994388;28;20181;-73
2021/07/15 12:46:30;;;;;;;3.08;1.73;;;23.30;99.90;;;;;;4994380;28;20587;-73
2021/07/15 12:49:00;;;;;;;2.65;1.65;;;23.40;99.90;;;;;;4995307;28;20169;-73
2021/07/15 12:51:27;;;;;;;3.13;2.05;;;23.50;99.90;;;;;;4994269;28;20258;-73
2021/07/15 12:53:53;;;;;;;5.53;2.20;;;23.60;99.90;;;;;;4994293;28;20214;-73
2021/07/15 12:56:24;;;;;;;3.58;2.00;;;23.50;99.90;;;;;;4994094;28;20169;-73